地図

経路データ

SID SEASON NUMBER BASIN SUBBASIN NAME ISO_TIME NATURE LAT LON WMO_WIND WMO_PRES WMO_AGENCY TRACK_TYPE DIST2LAND LANDFALL IFLAG USA_AGENCY USA_ATCF_ID USA_LAT USA_LON USA_RECORD USA_STATUS USA_WIND USA_PRES USA_SSHS USA_R34_NE USA_R34_SE USA_R34_SW USA_R34_NW USA_R50_NE USA_R50_SE USA_R50_SW USA_R50_NW USA_R64_NE USA_R64_SE USA_R64_SW USA_R64_NW USA_POCI USA_ROCI USA_RMW USA_EYE TOKYO_LAT TOKYO_LON TOKYO_GRADE TOKYO_WIND TOKYO_PRES TOKYO_R50_DIR TOKYO_R50_LONG TOKYO_R50_SHORT TOKYO_R30_DIR TOKYO_R30_LONG TOKYO_R30_SHORT TOKYO_LAND CMA_LAT CMA_LON CMA_CAT CMA_WIND CMA_PRES HKO_LAT HKO_LON HKO_CAT HKO_WIND HKO_PRES NEWDELHI_LAT NEWDELHI_LON NEWDELHI_GRADE NEWDELHI_WIND NEWDELHI_PRES NEWDELHI_CI NEWDELHI_DP NEWDELHI_POCI REUNION_LAT REUNION_LON REUNION_TYPE REUNION_WIND REUNION_PRES REUNION_TNUM REUNION_CI REUNION_RMW REUNION_R34_NE REUNION_R34_SE REUNION_R34_SW REUNION_R34_NW REUNION_R50_NE REUNION_R50_SE REUNION_R50_SW REUNION_R50_NW REUNION_R64_NE REUNION_R64_SE REUNION_R64_SW REUNION_R64_NW BOM_LAT BOM_LON BOM_TYPE BOM_WIND BOM_PRES BOM_TNUM BOM_CI BOM_RMW BOM_R34_NE BOM_R34_SE BOM_R34_SW BOM_R34_NW BOM_R50_NE BOM_R50_SE BOM_R50_SW BOM_R50_NW BOM_R64_NE BOM_R64_SE BOM_R64_SW BOM_R64_NW BOM_ROCI BOM_POCI BOM_EYE BOM_POS_METHOD BOM_PRES_METHOD NADI_LAT NADI_LON NADI_CAT NADI_WIND NADI_PRES WELLINGTON_LAT WELLINGTON_LON WELLINGTON_WIND WELLINGTON_PRES DS824_LAT DS824_LON DS824_STAGE DS824_WIND DS824_PRES TD9636_LAT TD9636_LON TD9636_STAGE TD9636_WIND TD9636_PRES TD9635_LAT TD9635_LON TD9635_WIND TD9635_PRES TD9635_ROCI NEUMANN_LAT NEUMANN_LON NEUMANN_CLASS NEUMANN_WIND NEUMANN_PRES MLC_LAT MLC_LON MLC_CLASS MLC_WIND MLC_PRES USA_GUST BOM_GUST BOM_GUST_PER REUNION_GUST REUNION_GUST_PER USA_SEAHGT USA_SEARAD_NE USA_SEARAD_SE USA_SEARAD_SW USA_SEARAD_NW STORM_SPEED STORM_DIR
1973079S09131 1973 39 SI WA BELLA 1973-03-19 23:30:00 NR -8.90000 130.900 20 1009 bom main 103 103 ______O_______ -1 -8.90000 130.900 20 20 1009 1.00000 45 45 26 160
1973079S09131 1973 39 SI WA BELLA 1973-03-20 00:00:00 TS -9.10372 130.966 main 123 134 O_____P__OO___ jtwc_sh SH311973 -9.30000 131.000 -1 -8.91115 130.947 20 20 1008 -8.90000 130.900 TC 15 1009 -9.30000 131.000 2 8 128
1973079S09131 1973 39 SI WA BELLA 1973-03-20 03:00:00 TS -9.17952 131.258 main 134 134 P_____P__PP___ SH311973 -9.33755 131.300 -1 -8.97878 131.226 20 20 1008 -8.96735 131.180 TC 15 1008 -9.37673 131.300 2 6 103
1973079S09131 1973 39 SI WA BELLA 1973-03-20 06:00:00 TS -9.23945 131.552 main 138 138 O_____P__PP_O_ jtwc_sh SH311973 -9.40000 131.600 -1 -9.04991 131.503 20 20 1007 -9.03768 131.457 TC 15 1008 -9.45266 131.600 2 -9.00000 131.600 TC 10 1008 6 105
1973079S09131 1973 39 SI WA BELLA 1973-03-20 09:00:00 TS -9.33075 131.848 main 155 159 P_____P__PP_P_ SH311973 -9.49997 131.900 -1 -9.12773 131.777 20 20 1007 -9.11416 131.732 TC 15 1007 -9.52727 131.900 2 -9.10007 131.910 TC 12 1007 6 106
1973079S09131 1973 39 SI WA BELLA 1973-03-20 11:30:00 TS -9.39676 132.091 20 1007 bom main 179 179 P_____O__PP_P_ SH311973 -9.58545 132.150 -1 -9.20000 132.000 20 20 1007 1.00000 -9.18491 131.956 TC 15 1007 -9.58803 132.150 2 -9.18335 132.154 TC 14 1007 45 45 6 104
1973079S09131 1973 39 SI WA BELLA 1973-03-20 12:00:00 TS -9.40257 132.141 main 179 185 O_____P__OO_O_ jtwc_sh SH311973 -9.60000 132.200 -1 -9.21543 132.044 20 20 1006 -9.20000 132.000 TC 15 1007 -9.60000 132.200 2 -9.20000 132.200 TC 15 1007 6 104
1973079S09131 1973 39 SI WA BELLA 1973-03-20 15:00:00 TS -9.48024 132.423 main 190 184 P_____P__PP_P_ SH311973 -9.64999 132.508 -1 -9.31373 132.304 20 20 1006 -9.29682 132.261 TC 15 1006 -9.67092 132.498 2 -9.29996 132.458 TC 15 1006 6 106
1973079S09131 1973 39 SI WA BELLA 1973-03-20 18:00:00 TS -9.55995 132.693 main 184 180 O_____P__PP_O_ jtwc_sh SH311973 -9.70000 132.800 -1 -9.41729 132.557 20 20 1006 -9.39993 132.515 TC 15 1006 -9.74250 132.788 2 -9.40000 132.700 TC 15 1006 6 109
1973079S09131 1973 39 SI WA BELLA 1973-03-20 21:00:00 TS -9.65553 132.951 main 184 184 P_____P__PP_P_ SH311973 -9.79248 133.065 -1 -9.51983 132.802 20 20 1006 -9.50308 132.761 TC 15 1006 -9.81782 133.058 2 -9.50750 132.957 TC 15 1006 5 111
1973079S09131 1973 39 SI WA BELLA 1973-03-20 23:30:00 TS -9.73685 133.152 20 1006 bom main 193 182 P_____O__PP_P_ SH311973 -9.88210 133.263 -1 -9.60000 133.000 20 20 1006 1.00000 -9.58455 132.961 TC 15 1006 -9.88569 133.262 2 -9.58669 133.162 TC 15 1006 45 45 5 112
1973079S09131 1973 39 SI WA BELLA 1973-03-21 00:00:00 TS -9.75230 133.190 main 182 182 O_____P__OO_O_ jtwc_sh SH311973 -9.90000 133.300 -1 -9.61382 133.040 20 20 1005 -9.60000 133.000 TC 15 1006 -9.90000 133.300 2 -9.60000 133.200 TC 15 1006 5 112
1973079S09131 1973 39 SI WA BELLA 1973-03-21 03:00:00 TS -9.83531 133.407 main 187 180 P_____P__PP_P_ SH311973 -9.99999 133.515 -1 -9.69120 133.276 20 21 1005 -9.67807 133.236 TC 17 1005 -9.99268 133.500 2 -9.64996 133.400 TC 17 1005 4 112
1973079S09131 1973 39 SI WA BELLA 1973-03-21 06:00:00 TS -9.91758 133.607 main 184 179 O_____P__PP_O_ jtwc_sh SH311973 -10.1000 133.700 -1 -9.76319 133.505 20 22 1004 -9.74994 133.465 TC 20 1004 -10.0923 133.673 2 -9.70000 133.600 TC 20 1004 4 114
1973079S09131 1973 39 SI WA BELLA 1973-03-21 09:00:00 TS -10.0076 133.799 main 185 182 P_____P__PP_P_ SH311973 -10.2000 133.850 -1 -9.83547 133.724 20 23 1003 -9.82183 133.686 TC 22 1003 -10.1958 133.834 2 -9.79251 133.850 TC 22 1003 4 116
1973079S09131 1973 39 SI WA BELLA 1973-03-21 11:30:00 TS -10.0863 133.957 25 1003 bom main 188 188 P_____O__PP_P_ SH311973 -10.2833 133.973 -1 -9.90000 133.900 20 25 1003 1.50000 -9.88627 133.865 TC 24 1003 -10.2827 133.971 2 -9.88210 134.060 TC 24 1003 45 45 4 117
1973079S09131 1973 39 SI WA BELLA 1973-03-21 12:00:00 TS -10.1024 133.988 main 188 182 O_____P__OO_O_ jtwc_sh SH311973 -10.3000 134.000 -1 -9.91435 133.930 20 25 1002 -9.90000 133.900 TC 25 1003 -10.3000 134.000 2 -9.90000 134.100 TC 25 1003 4 118
1973079S09131 1973 39 SI WA BELLA 1973-03-21 15:00:00 TS -10.1977 134.174 main 184 176 P_____P__PP_P_ SH311973 -10.4000 134.193 -1 -10.0045 134.099 20 25 1002 -9.98194 134.074 TC 26 1002 -10.3999 134.181 2 -9.99997 134.308 TC 25 1002 4 118
1973079S09131 1973 39 SI WA BELLA 1973-03-21 18:00:00 TS -10.2954 134.364 main 180 174 O_____P__PP_O_ jtwc_sh SH311973 -10.5000 134.400 -1 -10.1003 134.267 20 25 1001 -10.0725 134.246 TC 27 1001 -10.4999 134.370 2 -10.1000 134.500 TC 25 1001 4 118
1973079S09131 1973 39 SI WA BELLA 1973-03-21 21:00:00 TS -10.3948 134.558 main 179 175 P_____P__PP_P_ SH311973 -10.6000 134.593 -1 -10.1995 134.459 20 25 1000 -10.1768 134.445 TC 28 1000 -10.5999 134.574 2 -10.1925 134.685 TC 27 1000 5 116
1973079S09131 1973 39 SI WA BELLA 1973-03-22 00:00:00 TS -10.5000 134.783 25 1000 bom main 179 168 O_____O__OO_O_ jtwc_sh SH311973 -10.7000 134.800 -1 -10.3000 134.700 20 25 1000 2.00000 -10.3000 134.700 TC 30 1000 -10.7000 134.800 2 -10.3000 134.900 TC 30 1000 45 45 5 114
1973079S09131 1973 39 SP EA BELLA 1973-03-22 03:00:00 TS -10.6100 135.057 25 1000 bom main 171 158 P_____O__PP_P_ SH311973 -10.8000 135.035 -1 -10.4000 135.000 20 25 1000 2.00000 -10.4370 135.043 TC 30 1000 -10.7878 135.045 2 -10.4350 135.185 TC 30 1000 45 45 6 113
1973079S09131 1973 39 SP EA BELLA 1973-03-22 06:00:00 TS -10.7462 135.369 25 1000 bom main 158 134 O_____O__OP_O_ jtwc_sh SH311973 -10.9000 135.300 -1 -10.6000 135.400 20 25 1000 2.00000 -10.6000 135.400 TC 30 1000 -10.8774 135.313 2 -10.6000 135.500 TC 30 1000 45 45 7 115
1973079S09131 1973 39 SP EA BELLA 1973-03-22 09:00:00 TS -10.8926 135.679 30 1000 bom main 134 114 P_____O__PP_P_ SH311973 -10.9925 135.585 -1 -10.8000 135.800 20 30 1000 2.50000 -10.7924 135.700 TC 30 1000 -10.9784 135.599 2 -10.8000 135.807 TC 30 1000 45 45 7 117
1973079S09131 1973 39 SP EA BELLA 1973-03-22 12:00:00 TS -11.0500 135.967 30 1000 bom main 124 92 O_____O__OO_O_ jtwc_sh SH311973 -11.1000 135.900 -1 -11.0000 136.000 20 30 1000 2.50000 -11.0000 136.000 TC 30 1000 -11.1000 135.900 2 -11.0000 136.100 TC 30 1000 45 45 7 119
1973079S09131 1973 39 SP EA BELLA 1973-03-22 15:00:00 TS -11.2487 136.330 30 1000 bom main 92 68 P_____O__PP_P_ SH311973 -11.2350 136.250 -1 -11.4000 136.500 20 30 1000 2.50000 -11.2151 136.380 TC 30 999 -11.2495 136.243 2 -11.1575 136.358 TC 30 999 45 45 7 117
1973079S09131 1973 39 SP EA BELLA 1973-03-22 18:00:00 TS -11.3867 136.632 30 999 bom main 68 64 O_____O__OP_O_ jtwc_sh SH311973 -11.4000 136.600 -1 -11.4000 136.700 20 30 999 2.50000 -11.4000 136.700 TC 30 999 -11.4203 136.595 2 -11.3000 136.600 TC 30 999 45 45 6 119
1973079S09131 1973 39 SP EA BELLA 1973-03-22 21:00:00 TS -11.5439 136.882 30 999 bom main 70 62 P_____O__PP_P_ SH311973 -11.5925 136.923 -1 -11.5000 136.800 20 30 999 2.50000 -11.5149 136.845 TC 30 999 -11.6058 136.924 2 -11.4575 136.880 TC 30 999 45 45 5 125
1973079S09131 1973 39 SP EA BELLA 1973-03-23 00:00:00 TS -11.7000 137.083 30 999 bom main 68 49 O_____O__OO_O_ jtwc_sh SH311973 -11.8000 137.200 -1 -11.6000 136.900 20 30 999 2.50000 -11.6000 136.900 TC 30 999 -11.8000 137.200 2 -11.6000 137.100 TC 30 999 45 45 5 134
1973079S09131 1973 39 SP EA BELLA 1973-03-23 03:00:00 TS -11.8635 137.216 30 999 bom main 49 46 P_____O__PP_P_ SH311973 -12.0000 137.438 -1 -11.8000 136.900 20 30 999 2.50000 -11.6925 136.943 TC 30 999 -11.9886 137.415 2 -11.6999 137.165 TC 30 999 45 45 4 141
1973079S09131 1973 39 SP EA BELLA 1973-03-23 06:00:00 TS -11.9975 137.328 30 999 bom main 46 44 O_____O__OP_O_ jtwc_sh SH311973 -12.2000 137.600 -1 -11.8000 137.000 20 30 999 2.50000 -11.8000 137.000 TC 30 999 -12.1848 137.570 2 -11.8000 137.200 TC 30 999 45 45 4 142
1973079S09131 1973 39 SP EA BELLA 1973-03-23 09:00:00 TS -12.1560 137.445 30 999 bom main 44 54 P_____O__PP_P_ SH311973 -12.4000 137.688 -1 -11.9000 137.100 20 30 999 2.50000 -11.9200 137.165 TC 32 998 -12.3886 137.665 2 -11.9275 137.365 TC 32 998 45 45 4 150
1973079S09131 1973 39 SP EA BELLA 1973-03-23 12:00:00 TS -12.3500 137.533 40 998 bom main 54 55 O_____O__OO_O_ jtwc_sh SH311973 -12.6000 137.700 -1 -12.1000 137.300 30 40 998 3.00000 -12.1000 137.300 TC 35 998 -12.6000 137.700 2 -12.1000 137.500 TC 35 998 55 55 4 171
1973079S09131 1973 39 SP EA BELLA 1973-03-23 15:00:00 TS -12.5897 137.516 40 998 bom main 63 63 P_____O__PP_P_ SH311973 -12.7925 137.673 -1 -12.4000 137.300 30 40 998 3.00000 -12.3925 137.280 TC 35 998 -12.8259 137.691 2 -12.3350 137.480 TC 35 998 55 55 5 191
1973079S09131 1973 39 SP EA BELLA 1973-03-23 18:00:00 TS -12.8429 137.438 40 998 bom main 68 73 O_____O__OP_O_ jtwc_sh SH311973 -13.0000 137.600 -1 -12.7000 137.200 30 40 998 3.00000 -12.7000 137.200 TC 35 998 -13.0575 137.625 2 -12.6000 137.400 TC 35 998 55 55 5 196
1973079S09131 1973 39 SP EA BELLA 1973-03-23 21:00:00 TS -13.0917 137.362 40 998 bom main 76 65 P_____O__PP_P_ SH311973 -13.2500 137.515 -1 -13.0000 137.100 30 40 998 3.00000 -12.9075 137.165 TC 35 998 -13.2853 137.522 2 -12.8575 137.357 TC 35 998 55 55 5 198
1973079S09131 1973 39 SP EA BELLA 1973-03-24 00:00:00 TS -13.3000 137.283 40 998 bom main 70 46 O_____O__OO_O_ jtwc_sh SH311973 -13.5000 137.400 -1 -13.1000 137.100 30 40 998 3.00000 -13.1000 137.100 TC 35 998 -13.5000 137.400 2 -13.1000 137.300 TC 35 998 55 55 5 204
1973079S09131 1973 39 SP EA BELLA 1973-03-24 03:00:00 TS -13.5127 137.173 40 998 bom main 46 15 P_____O__PP_P_ SH311973 -13.7150 137.250 -1 -13.3000 137.100 30 40 998 3.00000 -13.3575 136.958 TC 35 998 -13.6813 137.265 2 -13.3075 137.215 TC 35 998 55 55 5 212
1973079S09131 1973 39 SP EA BELLA 1973-03-24 06:00:00 TS -13.7250 137.003 40 998 bom main 15 0 O_____O__OP_O_ jtwc_sh SH311973 -13.9000 137.100 -1 -13.6000 136.800 30 40 998 3.00000 -13.6000 136.800 TC 35 998 -13.8501 137.120 2 -13.5000 137.100 TC 35 998 55 55 5 217
1973079S09131 1973 39 SP EA BELLA 1973-03-24 09:00:00 TS -13.8998 136.878 35 999 bom main 10 0 P_____O__PP_P_ SH311973 -14.0500 136.977 -1 -13.8000 136.700 30 35 999 3.00000 -13.7725 136.685 TC 32 999 -14.0188 136.990 2 -13.7075 136.935 TC 32 998 49 49 4 213
1973079S09131 1973 39 SP EA BELLA 1973-03-24 12:00:00 TS -14.0500 136.783 30 1000 bom main 0 10 O_____O__OO_O_ jtwc_sh SH311973 -14.2000 136.900 -1 -13.9000 136.600 20 30 1000 2.50000 -13.9000 136.600 TC 30 1000 -14.2000 136.900 2 -13.9000 136.800 TC 30 999 45 45 3 201
1973079S09131 1973 39 SP EA BELLA 1973-03-24 15:00:00 TS -14.1958 136.763 30 1002 bom main 10 0 P_____O__PP_P_ SH311973 -14.3850 136.877 -1 -14.0000 136.600 20 30 1002 2.50000 -13.9850 136.535 TC 30 1000 -14.3700 136.902 2 -14.0500 136.785 TC 30 999 45 45 3 182
1973079S09131 1973 39 SP EA BELLA 1973-03-24 18:00:00 TS -14.3713 136.768 30 1000 bom main 11 11 O_____O__OP_O_ jtwc_sh SH311973 -14.6000 136.900 -1 -14.1000 136.500 20 30 1000 2.50000 -14.1000 136.500 TC 30 1000 -14.5600 136.942 2 -14.2000 136.800 TC 30 1000 45 45 4 175
1973079S09131 1973 39 SP EA BELLA 1973-03-24 21:00:00 TS -14.5975 136.800 30 1001 bom main 33 33 P_____O__PP_P_ SH311973 -14.8200 136.957 -1 -14.3000 136.500 20 30 1001 2.50000 -14.3175 136.493 TC 27 1001 -14.7950 136.986 2 -14.3925 136.750 TC 27 1000 45 45 5 174
1973079S09131 1973 39 SP EA BELLA 1973-03-25 00:00:00 TS -14.8857 136.824 30 1002 bom main 67 64 O_____O__OO_O_ jtwc_sh SH311973 -15.1000 137.000 -1 -14.6000 136.500 20 30 1002 2.50000 -14.6000 136.500 TC 25 1002 -15.1000 137.000 2 -14.6000 136.700 TC 25 1001 45 45 6 0
1973079S09131 1973 39 SP EA BELLA 1973-03-25 03:00:00 TS -15.2081 136.822 main 64 24 P_____P___P_P_ SH311973 -15.4550 136.980 -1 -14.8461 136.493 20 30 1002 TC -15.4919 136.958 2 -14.7925 136.700 TC 25 1001 7 185
1973079S09131 1973 39 SP EA BELLA 1973-03-25 06:00:00 TS -15.5629 136.768 main 24 0 O_____P___P_O_ jtwc_sh SH311973 -15.9000 136.900 -1 -15.0596 136.476 20 30 1002 -15.9551 136.866 2 -15.0000 136.700 TC 25 1002 7 193
1973079S09131 1973 39 SP EA BELLA 1973-03-25 09:00:00 TS -15.8821 136.660 main 0 0 P_____P___P_P_ SH311973 -16.4275 136.765 -1 -15.2808 136.443 20 30 1002 -16.4658 136.742 2 -15.2275 136.658 TC 25 1002 6 201
1973079S09131 1973 39 SP EA BELLA 1973-03-25 11:30:00 TS -16.0883 136.557 30 1002 bom main 0 0 P_____O___P_P_ SH311973 -16.9034 136.628 -1 -15.5000 136.400 20 30 1002 2.50000 -16.9103 136.624 2 -15.4504 136.610 TC 25 1002 45 45 3 237
1973079S09131 1973 39 SP EA BELLA 1973-03-25 12:00:00 TS -15.9699 136.516 main 0 0 O_____P___O_O_ jtwc_sh SH311973 -17.0000 136.600 -1 -15.5498 136.390 20 29 1002 -17.0000 136.600 2 -15.5000 136.600 TC 25 1002 5 327
1973079S09131 1973 39 SP EA BELLA 1973-03-25 15:00:00 TS -15.8656 136.409 main 0 0 ______P_____P_ SH311973 -1 -15.8877 136.316 20 27 1003 2 -15.8325 136.548 TC 25 1003 3 215
1973079S09131 1973 39 SP EA BELLA 1973-03-25 18:00:00 TS -16.2459 136.320 main 0 0 ______P_____O_ -1 -16.2689 136.230 20 25 1004 2 -16.2000 136.500 TC 25 1004 9 201
1973079S09131 1973 39 SP EA BELLA 1973-03-25 19:00:00 NR -16.4000 136.200 25 1005 bom main 0 ______O_______ -1 -16.4000 136.200 20 25 1005 2 TC 45 45 12 216

IBTrACS Databaseについて

本データベースは、米国NOAAが公開する1842年以降の世界の熱帯低気圧のベストトラックデータアーカイブInternational Best Track Archive for Climate Stewardship (IBTrACS)を、ウェブで閲覧しやすい形式に変換したものです。

最終更新日:2021-10-21